createdAt,value
2023-04-25T00:01:10.443Z,7.18
2023-04-25T00:03:37.754Z,7.20
2023-04-25T00:06:04.776Z,7.06
2023-04-25T00:08:31.992Z,6.91
2023-04-25T00:11:00.224Z,6.72
2023-04-25T00:13:27.693Z,6.74
2023-04-25T00:15:54.597Z,6.66
2023-04-25T00:18:24.177Z,6.76
2023-04-25T00:20:51.275Z,6.64
2023-04-25T00:23:21.416Z,6.71
2023-04-25T00:25:51.242Z,6.62
2023-04-25T00:28:18.300Z,6.78
2023-04-25T00:30:45.451Z,6.88
2023-04-25T00:33:12.469Z,6.87
2023-04-25T00:35:39.707Z,6.70
2023-04-25T00:38:06.518Z,6.83
2023-04-25T00:40:33.573Z,7.00
2023-04-25T00:43:00.451Z,6.83
2023-04-25T00:45:31.214Z,7.09
2023-04-25T00:47:58.937Z,6.75
2023-04-25T00:50:26.656Z,6.36
2023-04-25T00:52:53.782Z,6.57
2023-04-25T00:55:21.119Z,6.61
2023-04-25T00:57:48.178Z,6.66
2023-04-25T01:00:16.040Z,6.57
2023-04-25T01:02:44.006Z,6.69
2023-04-25T01:05:11.453Z,6.72
2023-04-25T01:07:38.498Z,6.79
2023-04-25T01:10:07.380Z,6.82
2023-04-25T01:12:34.608Z,6.87
2023-04-25T01:15:02.503Z,6.69
2023-04-25T01:17:30.367Z,6.58
2023-04-25T01:19:57.414Z,6.50
2023-04-25T01:22:24.577Z,6.42
2023-04-25T01:24:52.142Z,6.39
2023-04-25T01:27:19.427Z,6.34
2023-04-25T01:29:47.152Z,6.24
2023-04-25T01:32:15.309Z,6.12
2023-04-25T01:34:42.674Z,6.21
2023-04-25T01:37:09.469Z,6.18
2023-04-25T01:39:37.065Z,6.20
2023-04-25T01:42:04.044Z,6.08
2023-04-25T01:44:30.998Z,6.07
2023-04-25T01:46:57.989Z,6.12
2023-04-25T01:49:26.497Z,6.22
2023-04-25T01:51:53.624Z,6.23
2023-04-25T01:54:20.682Z,6.33
2023-04-25T01:56:52.377Z,6.51
2023-04-25T01:59:21.086Z,6.27
2023-04-25T02:01:48.171Z,6.27
2023-04-25T02:04:15.476Z,6.15
2023-04-25T02:06:42.513Z,6.36
2023-04-25T02:09:09.946Z,6.32
2023-04-25T02:11:36.846Z,6.49
2023-04-25T02:14:03.880Z,6.42
2023-04-25T02:16:31.993Z,6.42
2023-04-25T02:19:00.344Z,6.37
2023-04-25T02:21:27.759Z,6.21
2023-04-25T02:23:55.103Z,6.23
2023-04-25T02:26:22.259Z,6.12
2023-04-25T02:28:49.434Z,6.12
2023-04-25T02:31:16.559Z,5.91
2023-04-25T02:33:43.978Z,6.07
2023-04-25T02:36:10.833Z,6.22
2023-04-25T02:38:37.737Z,5.95
2023-04-25T02:41:04.658Z,5.98
2023-04-25T02:43:31.987Z,5.94
2023-04-25T02:45:58.874Z,6.10
2023-04-25T02:48:26.011Z,5.96
2023-04-25T02:50:52.969Z,5.74
2023-04-25T02:53:20.324Z,5.44
2023-04-25T02:55:47.324Z,5.30
2023-04-25T02:58:14.277Z,5.04
2023-04-25T03:00:41.213Z,4.81
2023-04-25T03:03:11.127Z,4.83
2023-04-25T03:05:38.098Z,4.42
2023-04-25T03:08:05.178Z,4.64
2023-04-25T03:10:32.072Z,4.46
2023-04-25T03:12:59.165Z,4.57
2023-04-25T03:15:26.153Z,4.39
2023-04-25T03:17:56.295Z,4.57
2023-04-25T03:20:23.229Z,4.54
2023-04-25T03:22:50.050Z,4.51
2023-04-25T03:25:17.226Z,4.67
2023-04-25T03:27:44.035Z,4.67
2023-04-25T03:30:11.354Z,4.73
2023-04-25T03:32:38.300Z,4.91
2023-04-25T03:35:06.670Z,4.70
2023-04-25T03:37:34.136Z,4.82
2023-04-25T03:40:00.945Z,4.79
2023-04-25T03:42:27.922Z,4.92
2023-04-25T03:44:54.876Z,4.88
2023-04-25T03:47:24.531Z,4.93
2023-04-25T03:49:52.994Z,4.88
2023-04-25T03:52:19.894Z,4.54
2023-04-25T03:54:47.052Z,4.34
2023-04-25T03:57:13.978Z,4.30
2023-04-25T03:59:41.084Z,4.21
2023-04-25T04:02:08.075Z,4.14
2023-04-25T04:04:35.068Z,4.17
2023-04-25T04:07:02.152Z,4.15
2023-04-25T04:09:29.147Z,4.11
2023-04-25T04:11:55.980Z,4.23
2023-04-25T04:14:23.148Z,4.25
2023-04-25T04:16:53.778Z,4.50
2023-04-25T04:19:20.594Z,4.76
2023-04-25T04:21:47.678Z,4.86
2023-04-25T04:24:14.874Z,4.95
2023-04-25T04:26:41.837Z,5.29
2023-04-25T04:29:09.942Z,5.33
2023-04-25T04:31:37.184Z,5.46
2023-04-25T04:34:04.760Z,5.49
2023-04-25T04:36:32.274Z,5.44
2023-04-25T04:38:59.150Z,5.44
2023-04-25T04:41:26.371Z,5.70
2023-04-25T04:43:54.505Z,5.48
2023-04-25T04:46:21.552Z,5.21
2023-04-25T04:48:48.823Z,5.12
2023-04-25T04:51:15.784Z,4.83
2023-04-25T04:53:42.747Z,4.95
2023-04-25T04:56:11.060Z,5.01
2023-04-25T04:58:38.066Z,5.09
2023-04-25T05:01:05.316Z,5.40
2023-04-25T05:03:32.468Z,5.49
2023-04-25T05:05:59.410Z,5.51
2023-04-25T05:08:26.152Z,5.31
2023-04-25T05:10:53.244Z,5.55
2023-04-25T05:13:20.104Z,5.75
2023-04-25T05:15:47.139Z,5.62
2023-04-25T05:18:16.818Z,5.80
2023-04-25T05:20:43.879Z,6.07
2023-04-25T05:23:10.788Z,6.13
2023-04-25T05:25:37.933Z,6.39
2023-04-25T05:28:05.013Z,6.23
2023-04-25T05:30:32.129Z,6.47
2023-04-25T05:32:58.963Z,6.85
2023-04-25T05:35:26.188Z,7.01
2023-04-25T05:37:53.110Z,7.19
2023-04-25T05:40:19.999Z,7.32
2023-04-25T05:42:47.362Z,7.43
2023-04-25T05:45:14.608Z,7.58
2023-04-25T05:47:41.897Z,7.66
2023-04-25T05:50:09.886Z,7.76
2023-04-25T05:52:36.891Z,7.86
2023-04-25T05:55:04.122Z,7.34
2023-04-25T05:57:31.154Z,7.13
2023-04-25T05:59:58.223Z,7.12
2023-04-25T06:02:25.311Z,7.00
2023-04-25T06:04:52.966Z,6.86
2023-04-25T06:07:21.453Z,6.92
2023-04-25T06:09:49.600Z,6.96
2023-04-25T06:12:16.608Z,7.33
2023-04-25T06:14:43.853Z,7.70
2023-04-25T06:17:10.782Z,7.82
2023-04-25T06:19:37.906Z,8.08
2023-04-25T06:22:04.804Z,8.01
2023-04-25T06:24:31.750Z,7.90
2023-04-25T06:26:58.618Z,8.17
2023-04-25T06:29:30.405Z,8.33
2023-04-25T06:31:58.293Z,8.18
2023-04-25T06:34:25.415Z,8.53
2023-04-25T06:36:52.317Z,8.48
2023-04-25T06:39:21.370Z,8.96
2023-04-25T06:41:48.741Z,8.70
2023-04-25T06:44:19.622Z,9.09
2023-04-25T06:46:46.546Z,9.56
2023-04-25T06:49:16.214Z,9.76
2023-04-25T06:51:43.663Z,9.76
2023-04-25T06:54:11.035Z,10.21
2023-04-25T06:56:38.213Z,9.25
2023-04-25T06:59:05.235Z,9.02
2023-04-25T07:01:32.122Z,8.57
2023-04-25T07:03:59.414Z,9.02
2023-04-25T07:06:28.316Z,8.96
2023-04-25T07:08:55.978Z,9.17
2023-04-25T07:11:22.994Z,9.54
2023-04-25T07:13:49.941Z,9.50
2023-04-25T07:16:17.947Z,9.87
2023-04-25T07:18:44.902Z,10.07
2023-04-25T07:21:11.743Z,10.04
2023-04-25T07:23:41.841Z,10.21
2023-04-25T07:26:09.240Z,10.86
2023-04-25T07:28:36.473Z,11.44
2023-04-25T07:31:04.094Z,11.77
2023-04-25T07:33:31.086Z,12.09
2023-04-25T07:36:01.080Z,12.21
2023-04-25T07:38:27.970Z,12.06
2023-04-25T07:40:54.944Z,12.15
2023-04-25T07:43:21.999Z,12.16
2023-04-25T07:45:49.535Z,11.94
2023-04-25T07:48:20.181Z,11.45
2023-04-25T07:50:46.900Z,11.64
2023-04-25T07:53:14.338Z,11.38
2023-04-25T07:55:41.676Z,11.00
2023-04-25T07:58:09.490Z,11.10
2023-04-25T08:00:37.126Z,11.17
2023-04-25T08:03:04.300Z,11.70
2023-04-25T08:05:31.379Z,13.74
2023-04-25T08:07:58.452Z,13.72
2023-04-25T08:10:25.392Z,12.54
2023-04-25T08:12:52.363Z,12.53
2023-04-25T08:15:19.487Z,11.54
2023-04-25T08:17:46.870Z,13.17
2023-04-25T08:20:16.523Z,17.11
2023-04-25T08:22:44.130Z,21.56
2023-04-25T08:25:10.978Z,19.64
2023-04-25T08:27:38.022Z,16.78
2023-04-25T08:30:05.437Z,16.59
2023-04-25T08:32:32.331Z,18.79
2023-04-25T08:34:59.149Z,21.69
2023-04-25T08:37:26.956Z,23.13
2023-04-25T08:39:54.522Z,24.63
2023-04-25T08:43:05.410Z,19.69
2023-04-25T08:45:34.031Z,17.44
2023-04-25T08:48:02.589Z,16.23
2023-04-25T08:50:32.902Z,15.10
2023-04-25T08:53:05.516Z,14.21
2023-04-25T08:55:33.135Z,13.79
2023-04-25T08:58:02.185Z,13.74
2023-04-25T09:00:29.337Z,15.13
2023-04-25T09:02:58.833Z,16.40
2023-04-25T09:05:30.060Z,17.19
2023-04-25T09:07:57.743Z,19.40
2023-04-25T09:10:24.788Z,18.90
2023-04-25T09:13:10.336Z,16.50
2023-04-25T09:15:52.789Z,12.26
2023-04-25T09:18:37.072Z,10.81
2023-04-25T09:21:14.305Z,10.28
2023-04-25T09:23:45.987Z,11.82
2023-04-25T09:26:18.185Z,12.65
2023-04-25T09:28:45.256Z,14.55
2023-04-25T09:31:14.864Z,15.37
2023-04-25T09:33:42.514Z,16.22
2023-04-25T09:36:14.526Z,15.96
2023-04-25T09:38:46.632Z,15.99
2023-04-25T09:41:14.345Z,15.63
2023-04-25T09:43:41.189Z,15.38
2023-04-25T09:46:15.053Z,14.71
2023-04-25T09:48:49.095Z,12.83
2023-04-25T09:51:16.137Z,12.74
2023-04-25T09:53:45.551Z,13.94
2023-04-25T09:56:14.381Z,13.81
2023-04-25T09:58:42.418Z,12.91
2023-04-25T10:01:12.399Z,13.38
2023-04-25T10:03:43.972Z,14.31
2023-04-25T10:06:20.722Z,19.76
2023-04-25T10:08:51.275Z,27.53
2023-04-25T10:11:19.032Z,31.97
2023-04-25T10:13:47.516Z,33.01
2023-04-25T10:16:14.906Z,33.37
2023-04-25T10:18:46.920Z,31.78
2023-04-25T10:21:15.612Z,33.30
2023-04-25T10:23:43.439Z,29.65
2023-04-25T10:26:14.717Z,29.08
2023-04-25T10:29:00.628Z,32.88
2023-04-25T10:31:27.901Z,26.92
2023-04-25T10:33:55.144Z,19.39
2023-04-25T10:36:23.976Z,17.56
2023-04-25T10:38:52.455Z,18.69
2023-04-25T10:41:21.705Z,21.45
2023-04-25T10:43:50.393Z,25.12
2023-04-25T10:46:27.636Z,27.65
2023-04-25T10:48:59.406Z,27.59
2023-04-25T10:51:50.894Z,26.55
2023-04-25T10:54:21.438Z,27.40
2023-04-25T10:56:52.953Z,27.47
2023-04-25T10:59:21.760Z,28.48
2023-04-25T11:01:56.179Z,27.35
2023-04-25T11:04:25.510Z,31.56
2023-04-25T11:07:11.305Z,29.14
2023-04-25T11:09:42.151Z,21.25
2023-04-25T11:12:10.954Z,16.32
2023-04-25T11:17:08.135Z,15.26
2023-04-25T11:19:35.236Z,18.76
2023-04-25T11:22:04.345Z,21.06
2023-04-25T11:24:33.297Z,25.83
2023-04-25T11:27:01.056Z,28.35
2023-04-25T11:29:31.399Z,27.40
2023-04-25T11:32:02.509Z,27.36
2023-04-25T11:34:32.066Z,28.57
2023-04-25T11:36:59.152Z,30.26
2023-04-25T11:39:27.380Z,29.84
2023-04-25T11:41:55.203Z,29.60
2023-04-25T11:44:23.082Z,30.08
2023-04-25T11:46:50.531Z,31.81
2023-04-25T11:49:19.713Z,29.14
2023-04-25T11:51:49.782Z,27.70
2023-04-25T11:54:17.343Z,27.44
2023-04-25T11:56:46.446Z,22.60
2023-04-25T11:59:14.559Z,20.96
2023-04-25T12:01:50.820Z,16.97
2023-04-25T12:04:26.819Z,15.17
2023-04-25T12:06:56.564Z,18.63
2023-04-25T12:09:35.300Z,19.06
2023-04-25T12:12:07.081Z,16.14
2023-04-25T12:14:37.079Z,16.33
2023-04-25T12:17:11.488Z,16.88
2023-04-25T12:19:42.012Z,16.40
2023-04-25T12:22:45.996Z,17.69
2023-04-25T12:25:14.381Z,15.61
2023-04-25T12:27:45.434Z,14.92
2023-04-25T12:30:15.397Z,14.25
2023-04-25T12:32:45.084Z,13.83
2023-04-25T12:35:12.527Z,15.05
2023-04-25T12:37:39.676Z,15.49
2023-04-25T12:40:07.826Z,15.54
2023-04-25T12:42:34.670Z,14.88
2023-04-25T12:45:01.758Z,14.79
2023-04-25T12:47:31.832Z,14.79
2023-04-25T12:49:59.856Z,15.24
2023-04-25T12:52:27.174Z,14.37
2023-04-25T12:54:59.619Z,11.86
2023-04-25T12:57:29.825Z,10.64
2023-04-25T12:59:56.919Z,9.58
2023-04-25T13:02:23.887Z,9.72
2023-04-25T13:04:55.155Z,9.28
2023-04-25T13:07:22.153Z,9.71
2023-04-25T13:09:49.063Z,9.36
2023-04-25T13:12:16.826Z,9.77
2023-04-25T13:14:43.833Z,10.05
2023-04-25T13:17:11.589Z,9.93
2023-04-25T13:19:40.066Z,10.36
2023-04-25T13:22:07.568Z,10.65
2023-04-25T13:24:37.342Z,10.82
2023-04-25T13:27:04.617Z,10.39
2023-04-25T13:29:31.481Z,9.64
2023-04-25T13:31:58.672Z,8.52
2023-04-25T13:34:26.296Z,7.90
2023-04-25T13:36:53.623Z,8.20
2023-04-25T13:39:21.185Z,8.53
2023-04-25T13:41:48.492Z,9.07
2023-04-25T13:44:16.130Z,10.11
2023-04-25T13:46:47.063Z,10.31
2023-04-25T13:49:14.611Z,10.80
2023-04-25T13:51:45.186Z,10.98
2023-04-25T13:54:14.187Z,10.79
2023-04-25T13:56:43.561Z,10.55
2023-04-25T13:59:10.834Z,10.17
2023-04-25T14:01:37.948Z,10.01
2023-04-25T14:04:06.640Z,10.08
2023-04-25T14:06:34.216Z,9.95
2023-04-25T14:09:02.422Z,9.99
2023-04-25T14:11:29.610Z,10.19
2023-04-25T14:13:56.556Z,10.36
2023-04-25T14:16:24.599Z,10.38
2023-04-25T14:18:51.751Z,10.32
2023-04-25T14:21:18.833Z,10.45
2023-04-25T14:23:46.638Z,10.83
2023-04-25T14:26:14.121Z,10.95
2023-04-25T14:28:41.322Z,10.93
2023-04-25T14:31:08.997Z,10.98
2023-04-25T14:33:36.639Z,11.04
2023-04-25T14:36:03.872Z,11.13
2023-04-25T14:38:30.871Z,11.25
2023-04-25T14:41:01.146Z,11.01
2023-04-25T14:43:28.036Z,10.41
2023-04-25T14:45:56.862Z,10.75
2023-04-25T14:48:25.453Z,11.68
2023-04-25T14:50:52.650Z,11.95
2023-04-25T14:53:25.342Z,11.82
2023-04-25T14:55:52.275Z,12.54
2023-04-25T14:58:19.602Z,12.32
2023-04-25T15:00:47.222Z,11.83
2023-04-25T15:03:18.057Z,12.06
2023-04-25T15:05:45.634Z,12.14
2023-04-25T15:08:12.490Z,11.46
2023-04-25T15:10:39.484Z,11.66
2023-04-25T15:13:06.774Z,11.61
2023-04-25T15:15:34.057Z,11.59
2023-04-25T15:18:01.547Z,11.72
2023-04-25T15:20:28.921Z,11.12
2023-04-25T15:22:56.462Z,10.73
2023-04-25T15:25:23.588Z,10.76
2023-04-25T15:27:53.989Z,10.65
2023-04-25T15:30:21.258Z,10.71
2023-04-25T15:32:48.770Z,11.04
2023-04-25T15:35:16.622Z,11.29
2023-04-25T15:37:43.939Z,11.57
2023-04-25T15:40:17.775Z,10.91
2023-04-25T15:42:54.057Z,10.67
2023-04-25T15:45:26.007Z,10.47
2023-04-25T15:47:55.496Z,10.11
2023-04-25T15:50:23.050Z,10.11
2023-04-25T15:52:51.649Z,9.65
2023-04-25T15:55:26.930Z,9.43
2023-04-25T15:57:54.452Z,9.36
2023-04-25T16:00:22.645Z,9.35
2023-04-25T16:02:50.066Z,9.32
2023-04-25T16:05:20.835Z,8.93
2023-04-25T16:07:48.736Z,9.02
2023-04-25T16:10:21.777Z,9.21
2023-04-25T16:12:50.716Z,9.42
2023-04-25T16:15:17.971Z,9.40
2023-04-25T16:17:46.208Z,9.50
2023-04-25T16:20:14.026Z,9.64
2023-04-25T16:22:42.445Z,9.31
2023-04-25T16:25:13.400Z,9.45
2023-04-25T16:27:40.688Z,9.80
2023-04-25T16:30:10.255Z,10.25
2023-04-25T16:32:39.210Z,10.49
2023-04-25T16:35:06.722Z,10.40
2023-04-25T16:37:33.987Z,10.08
2023-04-25T16:40:01.326Z,9.82
2023-04-25T16:42:28.414Z,9.46
2023-04-25T16:44:55.260Z,9.39
2023-04-25T16:47:22.305Z,9.32
2023-04-25T16:49:49.509Z,9.23
2023-04-25T16:52:16.912Z,8.68
2023-04-25T16:54:43.841Z,7.80
2023-04-25T16:57:11.820Z,7.49
2023-04-25T16:59:39.463Z,7.99
2023-04-25T17:02:10.949Z,8.81
2023-04-25T17:04:38.178Z,8.97
2023-04-25T17:07:05.742Z,8.40
2023-04-25T17:09:35.555Z,7.74
2023-04-25T17:12:03.997Z,7.41
2023-04-25T17:14:32.528Z,7.33
2023-04-25T17:16:59.306Z,7.63
2023-04-25T17:19:26.346Z,7.72
2023-04-25T17:21:53.446Z,8.01
2023-04-25T17:24:22.348Z,8.06
2023-04-25T17:26:49.472Z,7.94
2023-04-25T17:29:16.385Z,7.34
2023-04-25T17:31:44.416Z,7.25
2023-04-25T17:34:16.728Z,7.32
2023-04-25T17:36:48.038Z,7.33
2023-04-25T17:39:17.735Z,7.13
2023-04-25T17:41:45.032Z,7.07
2023-04-25T17:44:12.274Z,7.11
2023-04-25T17:46:39.310Z,7.10
2023-04-25T17:49:06.383Z,7.38
2023-04-25T17:51:33.468Z,7.38
2023-04-25T17:54:00.486Z,7.32
2023-04-25T17:56:27.880Z,6.97
2023-04-25T17:58:55.201Z,6.93
2023-04-25T18:01:23.027Z,6.69
2023-04-25T18:03:53.115Z,6.26
2023-04-25T18:06:20.015Z,6.01
2023-04-25T18:08:47.505Z,5.81
2023-04-25T18:11:17.286Z,5.76
2023-04-25T18:13:44.372Z,5.66
2023-04-25T18:16:12.061Z,5.51
2023-04-25T18:18:39.662Z,5.43
2023-04-25T18:21:09.780Z,5.24
2023-04-25T18:23:37.986Z,5.27
2023-04-25T18:26:05.812Z,5.23
2023-04-25T18:28:34.564Z,5.40
2023-04-25T18:31:01.568Z,5.55
2023-04-25T18:33:28.410Z,5.68
2023-04-25T18:35:59.144Z,5.73
2023-04-25T18:41:06.207Z,5.26
2023-04-25T18:43:37.450Z,5.01
2023-04-25T18:46:04.885Z,5.02
2023-04-25T18:48:32.052Z,4.89
2023-04-25T18:50:59.092Z,4.45
2023-04-25T18:53:26.056Z,4.43
2023-04-25T18:55:53.521Z,4.66
2023-04-25T18:58:20.535Z,4.40
2023-04-25T19:00:48.770Z,4.37
2023-04-25T19:03:15.910Z,4.62
2023-04-25T19:05:43.105Z,4.28
2023-04-25T19:08:09.991Z,4.38
2023-04-25T19:10:37.713Z,4.22
2023-04-25T19:13:05.121Z,4.26
2023-04-25T19:15:33.556Z,4.00
2023-04-25T19:18:01.315Z,4.42
2023-04-25T19:20:28.502Z,4.22
2023-04-25T19:22:55.634Z,4.22
2023-04-25T19:25:26.501Z,4.25
2023-04-25T19:27:53.551Z,4.30
2023-04-25T19:30:20.862Z,4.37
2023-04-25T19:32:47.909Z,4.18
2023-04-25T19:35:15.233Z,4.20
2023-04-25T19:37:46.796Z,4.09
2023-04-25T19:40:16.108Z,3.99
2023-04-25T19:42:44.105Z,4.03
2023-04-25T19:45:11.896Z,3.95
2023-04-25T19:47:42.658Z,3.97
2023-04-25T19:50:10.917Z,3.86
2023-04-25T19:52:39.044Z,3.85
2023-04-25T19:55:06.823Z,3.63
2023-04-25T19:57:34.617Z,3.69
2023-04-25T20:00:06.344Z,3.95
2023-04-25T20:02:33.436Z,3.86
2023-04-25T20:05:00.608Z,3.67
2023-04-25T20:07:27.581Z,3.75
2023-04-25T20:09:57.868Z,3.79
2023-04-25T20:12:24.924Z,3.63
2023-04-25T20:14:51.993Z,3.66
2023-04-25T20:17:21.650Z,3.58
2023-04-25T20:19:48.646Z,3.61
2023-04-25T20:22:15.445Z,3.53
2023-04-25T20:24:42.579Z,3.66
2023-04-25T20:27:09.504Z,3.52
2023-04-25T20:29:37.265Z,3.51
2023-04-25T20:32:04.522Z,3.59
2023-04-25T20:34:31.826Z,3.55
2023-04-25T20:36:59.418Z,3.38
2023-04-25T20:39:27.110Z,3.39
2023-04-25T20:41:54.949Z,3.51
2023-04-25T20:44:23.627Z,3.60
2023-04-25T20:46:50.824Z,3.76
2023-04-25T20:49:17.813Z,4.00
2023-04-25T20:51:44.812Z,4.00
2023-04-25T20:54:13.477Z,3.94
2023-04-25T20:56:40.535Z,3.85
2023-04-25T20:59:09.790Z,3.77
2023-04-25T21:01:36.990Z,3.66
2023-04-25T21:04:06.557Z,3.60
2023-04-25T21:06:34.886Z,3.62
2023-04-25T21:09:01.955Z,3.62
2023-04-25T21:11:28.796Z,3.44
2023-04-25T21:13:55.899Z,3.51
2023-04-25T21:16:22.970Z,3.55
2023-04-25T21:18:50.285Z,3.49
2023-04-25T21:21:17.667Z,3.54
2023-04-25T21:23:44.598Z,3.82
2023-04-25T21:26:11.761Z,4.05
2023-04-25T21:28:38.797Z,4.10
2023-04-25T21:31:05.871Z,4.25
2023-04-25T21:33:32.779Z,4.25
2023-04-25T21:35:59.652Z,4.30
2023-04-25T21:38:27.013Z,4.08
2023-04-25T21:40:54.008Z,3.61
2023-04-25T21:43:21.833Z,3.56
2023-04-25T21:46:11.478Z,3.48
2023-04-25T21:48:35.620Z,3.68
2023-04-25T21:51:02.568Z,3.52
2023-04-25T21:53:29.645Z,3.52
2023-04-25T21:55:59.364Z,3.36
2023-04-25T21:58:26.260Z,3.24
2023-04-25T22:00:53.300Z,3.25
2023-04-25T22:03:20.740Z,3.23
2023-04-25T22:05:50.198Z,3.35
2023-04-25T22:08:17.573Z,3.42
2023-04-25T22:10:44.577Z,3.59
2023-04-25T22:13:11.622Z,3.77
2023-04-25T22:15:41.066Z,3.85
2023-04-25T22:18:08.294Z,3.62
2023-04-25T22:20:35.485Z,3.44
2023-04-25T22:23:02.344Z,3.26
2023-04-25T22:25:30.062Z,3.34
2023-04-25T22:28:00.314Z,3.64
2023-04-25T22:30:30.994Z,3.39
2023-04-25T22:32:58.208Z,3.18
2023-04-25T22:35:25.090Z,3.08
2023-04-25T22:37:51.893Z,3.05
2023-04-25T22:40:19.199Z,3.17
2023-04-25T22:42:46.324Z,3.14
2023-04-25T22:45:13.605Z,3.07
2023-04-25T22:47:40.501Z,3.11
2023-04-25T22:50:12.729Z,3.18
2023-04-25T22:52:39.802Z,3.46
2023-04-25T22:55:07.610Z,3.39
2023-04-25T22:57:38.764Z,3.18
2023-04-25T23:00:11.924Z,3.00
2023-04-25T23:02:38.958Z,2.95
2023-04-25T23:05:07.358Z,2.96
2023-04-25T23:07:34.459Z,3.23
2023-04-25T23:10:01.486Z,3.20
2023-04-25T23:12:28.485Z,3.34
2023-04-25T23:14:55.363Z,3.22
2023-04-25T23:17:23.357Z,3.30
2023-04-25T23:19:50.260Z,3.33
2023-04-25T23:22:17.626Z,3.45
2023-04-25T23:24:45.057Z,3.74
2023-04-25T23:27:12.129Z,3.68
2023-04-25T23:29:40.844Z,3.82
2023-04-25T23:32:09.096Z,4.00
2023-04-25T23:34:37.913Z,4.03
2023-04-25T23:37:04.923Z,4.00
2023-04-25T23:39:31.848Z,3.76
2023-04-25T23:41:58.774Z,3.60
2023-04-25T23:44:26.134Z,3.40
2023-04-25T23:46:53.121Z,3.27
2023-04-25T23:49:20.108Z,3.28
2023-04-25T23:51:49.907Z,3.27
2023-04-25T23:54:16.745Z,3.46
2023-04-25T23:56:43.761Z,3.80
2023-04-25T23:59:10.838Z,3.84
